首页
METAR-TAF:

METAR-TAF

机场 :

诺加利斯, 亞利桑那州, 美国

纬度: 31-25-15N, 经度: 110-50-45W, 海拔: 1198米

当前天气观测

该预报发布于56分钟前的03:54 UTC
风速4节,风向西转西南
温度 25°C
湿度 17%
气压 1017 hPa
能見度: 16.1公里
天空无云

METAR: KOLS 190354Z AUTO 25004KT 10SM CLR 25/M02 A3003 RMK AO2 SLP097 T02501017

时间: 21:50 (04:50 UTC)

预报

该预报发布于5小时和30分钟前的23:20 UTC
预报有效从19日的 00点(UTC)到 19日的 24点(UTC)
风速12节,风向西转西南,有时为20节阵风
能見度: 10公里
天空无云
从 19日的 0200点(UTC)
风速7节,风向西南
能見度: 10公里
天空无云
从 19日的 0500点(UTC)
风速5节,风向多变
能見度: 10公里
天空无云
从 19日的 2200点(UTC)
风速11节,风向西
能見度: 10公里
少量云层高于25000英尺

TAF: KOLS 182320Z 1900/1924 24012G20KT P6SM SKC FM190200 22007KT P6SM SKC FM190500 VRB05KT P6SM SKC FM192200 26011KT P6SM FEW250

超过4000个机场的气象观测和天气预报(METAR&TAF报告)。

可查询的气象台以黄色和红色小点在地图上表示。

将鼠标移到小点上方,可查看气象台名称。

然后点击查看天气观测和预报。

如需切换地图:点击带黑十字的绿色按钮放大地图;点击带横线的绿色按钮缩小地图;或者点击绿色箭头查看邻近地区的地图。


METAR-TAF: